• Join FlightAware (Why Join?)
  • Login
  • US Flag 
07:30AM EDT


 

Airport Tracker/Info


-or-


 

Live Flight TrackerFlight Track Log ✈ N1570N ✈ 24-Oct-2013 ✈ KMKC - KBPK

Flight Track Log - Related Links

Times and Time Zones

All times are in EDT time to prevent confusion due to time zone crossing. See the N1570N flight status page for this flight to view local times or setup timezone preferences in your user account.

Time Position Orientation Groundspeed Altitude Reporting Facility
EDT Latitude Longitude Course Direction KTS MPH feet Rate Location/Type
10:14AM 39.1333 -94.5833 123° Southeast 101 116 1,700  Level Kansas City TRACON
10:15AM 39.1167 -94.5500 123° Southeast 106 122 2,900 1,140 Climbing Kansas City TRACON
10:16AM 39.0833 -94.5167 142° Southeast 141 162 4,100 1,140 Climbing Kansas City TRACON
10:16AM 39.0667 -94.5000 142° Southeast 145 167 5,100 720 Climbing Kansas City TRACON
10:18AM 39.0167 -94.4667 153° Southeast 153 176 5,500 180 Climbing Kansas City TRACON
10:19AM 38.9667 -94.4333 153° Southeast 202 232 5,500 360 Level Kansas City TRACON
10:19AM 38.9167 -94.4000 153° Southeast 225 259 6,200 900 Climbing Kansas City TRACON
10:21AM 38.8667 -94.3500 142° Southeast 198 228 7,400 480 Climbing Kansas City TRACON
10:22AM 38.8114 -94.3083 150° Southeast 200 230 7,500  Climbing Kansas City Center
10:23AM 38.7594 -94.2686 149° Southeast 219 252 7,500  Level Kansas City Center
10:24AM 38.6989 -94.2214 149° Southeast 225 259 7,500  Level Kansas City Center
10:25AM 38.6467 -94.1828 150° Southeast 227 261 7,500  Level Kansas City Center
10:26AM 38.5853 -94.1367 150° Southeast 229 264 7,500  Level Kansas City Center
10:27AM 38.5325 -94.0950 148° Southeast 231 266 7,500  Level Kansas City Center
10:28AM 38.4689 -94.0489 150° Southeast 234 269 7,500  Level Kansas City Center
10:29AM 38.4194 -94.0086 147° Southeast 235 270 7,500  Level Kansas City Center
10:30AM 38.3631 -93.9669 150° Southeast 233 268 7,500  Level Kansas City Center
10:31AM 38.2975 -93.9158 149° Southeast 231 266 7,500  Level Kansas City Center
10:32AM 38.2419 -93.8728 149° Southeast 231 266 7,500  Level Kansas City Center
10:33AM 38.1881 -93.8303 148° Southeast 229 264 7,500  Level Kansas City Center
10:34AM 38.1328 -93.7886 149° Southeast 230 265 7,500  Level Kansas City Center
10:35AM 38.0772 -93.7461 149° Southeast 231 266 7,500  Level Kansas City Center
10:36AM 38.0208 -93.7039 149° Southeast 233 268 7,500  Level Kansas City Center
10:37AM 37.9644 -93.6617 149° Southeast 235 270 7,500  Level Kansas City Center
10:38AM 37.8997 -93.6106 148° Southeast 232 267 7,500  Level Kansas City Center
10:39AM 37.8456 -93.5683 148° Southeast 229 264 7,500  Level Kansas City Center
10:41AM 37.7908 -93.5269 149° Southeast 229 264 7,500  Level Kansas City Center
10:42AM 37.7356 -93.4847 149° Southeast 230 265 7,500  Level Kansas City Center
10:43AM 37.6803 -93.4439 150° Southeast 230 265 7,500  Level Kansas City Center
10:44AM 37.6247 -93.4033 150° Southeast 230 265 7,500  Level Kansas City Center
10:45AM 37.5586 -93.3519 148° Southeast 231 266 7,500  Level Kansas City Center
10:46AM 37.5025 -93.3094 149° Southeast 234 269 7,500  Level Kansas City Center
10:47AM 37.4458 -93.2683 150° Southeast 233 268 7,500  Level Kansas City Center
10:48AM 37.3903 -93.2272 150° Southeast 233 268 7,500  Level Kansas City Center
10:49AM 37.3339 -93.1842 149° Southeast 234 269 7,500  Level Kansas City Center
10:50AM 37.2772 -93.1428 150° Southeast 235 270 7,500  Level Kansas City Center
10:51AM 37.2203 -93.0997 149° Southeast 235 270 7,500  Level Kansas City Center
10:52AM 37.1525 -93.0489 149° Southeast 237 273 7,500  Level Kansas City Center
10:53AM 37.0953 -93.0069 150° Southeast 237 273 7,500  Level Kansas City Center
10:54AM 37.0383 -92.9644 149° Southeast 237 273 7,500  Level Kansas City Center
10:55AM 36.9806 -92.9217 149° Southeast 238 274 7,500  Level Kansas City Center
10:56AM 36.9228 -92.8792 150° Southeast 240 276 7,500 -180 Level Kansas City Center
10:57AM 36.8653 -92.8369 150° Southeast 240 276 7,200 -540 Descending Kansas City Center
10:58AM 36.7942 -92.7839 149° Southeast 243 280 6,400 -780 Descending Kansas City Center
10:59AM 36.7394 -92.7394 147° Southeast 239 275 5,600 -720 Descending Kansas City Center
11:00AM 36.6869 -92.7008 149° Southeast 232 267 5,000 -540 Descending Kansas City Center
11:01AM 36.6431 -92.6722 152° Southeast 225 259 4,500 -540 Descending Kansas City Center
11:04AM 36.5260 -92.5902 149° Southeast  Level FlightAware Approximate
11:11AM 36.3667 -92.4667 141° Southeast  Level FlightAware Approximate
11:12AM 36.3689 -92.4705 141° Southeast  Level Estimated
11:13AM 36.3667 -92.4667 141° Southeast  Level FlightAware Approximate
11:14AM 36.3689 -92.4705 141° Southeast  Level Estimated
11:15AM 36.3667 -92.4667 141° Southeast  Level FlightAware Approximate